Vinnytsia, Ukraine
Current Conditions -  °F | °C
As of 9:00 PM on Monday 22 Dec 2014 (Local Time) from LUBL Reporting Station
NA  
Wind Chill: 32°   Ceiling: NA
Heat Index: 39°   Visibility: 6mi
Dew Point: 32°   Wind: 13mph
Humidity: 75%   Direction: 230°SW
Pressure: 29.83"   Gusts: NA
Location:  49.23°N, 28.5°E
Report Text: LUBL 221800Z AUTO 23011KT 9999 ///049 04/00 Q1010
Loading
Personal Weather Stations






























Interactive Weather Map New forecast layout! Learn more

10-Day Weather Forecast

Advertisements
Track Severe Weather on mobile